Maza, Argentina
Current Conditions -  °F | °C
As of 4:00 AM on Sunday 26 Oct 2014 (Local Time) from SAOC Reporting Station
Clear Clear  
Wind Chill: 25°   Ceiling: Unl
Heat Index: 26°   Visibility: 6mi
Dew Point: 12°   Wind: 16mph
Humidity: 44%   Direction: 340°NNW
Pressure: 29.74"   Gusts: 28mph
Location:  36.83°S, 63.32°W
Report Text: SAOC 260700Z 34014G24KT CAVOK 25/12 Q1007
Loading
Personal Weather Stations






























Interactive Weather Map
Tropical Storm Tracking
New forecast layout! Learn more

10-Day Weather Forecast

Advertisements
Track Severe Weather on mobile